createdAt,value
2019-04-27T00:00:18.282Z,76.70
2019-04-27T00:01:18.321Z,72.80
2019-04-27T00:02:24.843Z,71.20
2019-04-27T00:03:18.433Z,73.30
2019-04-27T00:04:19.177Z,75.00
2019-04-27T00:05:18.520Z,75.80
2019-04-27T00:06:18.575Z,73.20
2019-04-27T00:07:21.225Z,75.00
2019-04-27T00:08:18.637Z,74.50
2019-04-27T00:09:18.707Z,74.20
2019-04-27T00:10:20.365Z,74.00
2019-04-27T00:11:18.786Z,73.10
2019-04-27T00:12:22.410Z,73.20
2019-04-27T00:13:18.857Z,72.90
2019-04-27T00:14:18.930Z,71.50
2019-04-27T00:15:18.982Z,71.50
2019-04-27T00:16:19.054Z,69.30
2019-04-27T00:17:21.009Z,70.20
2019-04-27T00:18:19.089Z,70.80
2019-04-27T00:19:19.150Z,71.10
2019-04-27T00:20:21.527Z,71.20
2019-04-27T00:21:19.250Z,69.30
2019-04-27T00:22:19.302Z,70.20
2019-04-27T00:23:19.349Z,70.30
2019-04-27T00:24:19.403Z,73.60
2019-04-27T00:25:19.460Z,73.00
2019-04-27T00:26:19.474Z,68.40
2019-04-27T00:27:19.522Z,69.30
2019-04-27T00:28:19.542Z,66.50
2019-04-27T00:29:19.619Z,68.90
2019-04-27T00:30:19.650Z,69.90
2019-04-27T00:31:19.685Z,69.60
2019-04-27T00:32:19.734Z,68.30
2019-04-27T00:33:19.846Z,66.90
2019-04-27T00:34:19.839Z,68.60
2019-04-27T00:35:19.878Z,67.70
2019-04-27T00:36:19.943Z,69.80
2019-04-27T00:37:19.996Z,69.60
2019-04-27T00:38:20.080Z,69.50
2019-04-27T00:39:20.122Z,70.30
2019-04-27T00:40:20.126Z,68.80
2019-04-27T00:41:20.194Z,69.30
2019-04-27T00:42:20.229Z,70.80
2019-04-27T00:43:20.314Z,70.10
2019-04-27T00:44:20.290Z,68.80
2019-04-27T00:45:20.394Z,67.40
2019-04-27T00:46:20.432Z,66.60
2019-04-27T00:47:20.429Z,70.30
2019-04-27T00:48:20.494Z,69.40
2019-04-27T00:49:20.526Z,69.10
2019-04-27T00:50:20.579Z,71.90
2019-04-27T00:51:20.620Z,67.80
2019-04-27T00:52:20.655Z,67.90
2019-04-27T00:53:20.714Z,69.20
2019-04-27T00:54:20.815Z,67.80
2019-04-27T00:55:20.820Z,68.60
2019-04-27T00:56:20.859Z,68.80
2019-04-27T00:57:20.916Z,67.90
2019-04-27T00:58:20.959Z,65.60
2019-04-27T00:59:21.041Z,66.10
2019-04-27T01:00:21.049Z,68.00
2019-04-27T01:01:21.083Z,67.30
2019-04-27T01:02:21.154Z,66.30
2019-04-27T01:03:22.858Z,68.30
2019-04-27T01:04:21.225Z,65.90
2019-04-27T01:05:23.042Z,67.10
2019-04-27T01:06:21.336Z,65.20
2019-04-27T01:07:22.748Z,66.90
2019-04-27T01:08:22.943Z,66.70
2019-04-27T01:09:21.473Z,67.40
2019-04-27T01:10:23.247Z,66.20
2019-04-27T01:11:22.673Z,64.70
2019-04-27T01:12:21.596Z,63.90
2019-04-27T01:13:23.032Z,65.60
2019-04-27T01:14:23.084Z,64.50
2019-04-27T01:15:23.687Z,63.40
2019-04-27T01:16:24.015Z,64.90
2019-04-27T01:17:21.833Z,66.80
2019-04-27T01:18:21.887Z,67.50
2019-04-27T01:19:21.934Z,68.10
2019-04-27T01:20:22.065Z,70.50
2019-04-27T01:21:22.004Z,70.10
2019-04-27T01:22:22.060Z,65.90
2019-04-27T01:23:22.125Z,65.10
2019-04-27T01:24:22.167Z,66.30
2019-04-27T01:25:22.202Z,67.80
2019-04-27T01:26:22.258Z,64.80
2019-04-27T01:27:22.282Z,63.40
2019-04-27T01:28:22.347Z,65.20
2019-04-27T01:29:22.379Z,67.40
2019-04-27T01:30:22.538Z,65.40
2019-04-27T01:31:22.494Z,66.60
2019-04-27T01:32:22.539Z,67.10
2019-04-27T01:33:22.580Z,63.70
2019-04-27T01:34:22.630Z,67.00
2019-04-27T01:35:22.684Z,65.10
2019-04-27T01:36:22.743Z,65.90
2019-04-27T01:37:22.788Z,66.20
2019-04-27T01:38:22.824Z,65.30
2019-04-27T01:39:22.838Z,63.00
2019-04-27T01:40:23.016Z,63.70
2019-04-27T01:41:22.964Z,65.00
2019-04-27T01:42:22.987Z,61.30
2019-04-27T01:43:23.039Z,63.20
2019-04-27T01:44:23.121Z,64.90
2019-04-27T01:45:23.246Z,63.90
2019-04-27T01:46:23.186Z,62.30
2019-04-27T01:47:23.411Z,64.90
2019-04-27T01:48:25.803Z,65.10
2019-04-27T01:49:23.306Z,63.70
2019-04-27T01:50:23.382Z,64.10
2019-04-27T01:51:23.422Z,63.30
2019-04-27T01:52:23.457Z,62.50
2019-04-27T01:53:23.486Z,65.50
2019-04-27T01:54:23.537Z,66.60
2019-04-27T01:55:23.712Z,69.20
2019-04-27T01:56:23.711Z,66.90
2019-04-27T01:57:23.695Z,69.30
2019-04-27T01:58:23.722Z,69.50
2019-04-27T01:59:23.771Z,67.30
2019-04-27T02:00:23.935Z,67.30
2019-04-27T02:01:23.893Z,66.70
2019-04-27T02:02:23.945Z,68.00
2019-04-27T02:03:23.986Z,67.90
2019-04-27T02:04:24.022Z,68.10
2019-04-27T02:05:24.075Z,69.20
2019-04-27T02:06:24.125Z,67.20
2019-04-27T02:07:24.277Z,65.60
2019-04-27T02:08:24.222Z,65.00
2019-04-27T02:09:24.241Z,65.70
2019-04-27T02:10:24.304Z,69.00
2019-04-27T02:11:24.386Z,59.40
2019-04-27T02:12:24.387Z,61.30
2019-04-27T02:13:24.545Z,57.60
2019-04-27T02:14:24.492Z,57.70
2019-04-27T02:15:24.511Z,57.10
2019-04-27T02:16:24.572Z,58.10
2019-04-27T02:17:24.610Z,57.50
2019-04-27T02:18:34.748Z,57.40
2019-04-27T02:19:24.800Z,57.90
2019-04-27T02:20:24.740Z,56.20
2019-04-27T02:21:24.835Z,58.70
2019-04-27T02:22:24.891Z,56.80
2019-04-27T02:23:24.881Z,57.70
2019-04-27T02:24:25.053Z,56.70
2019-04-27T02:25:24.981Z,55.00
2019-04-27T02:26:25.037Z,56.80
2019-04-27T02:27:25.067Z,56.70
2019-04-27T02:28:25.120Z,57.70
2019-04-27T02:29:25.174Z,58.30
2019-04-27T02:30:25.198Z,57.50
2019-04-27T02:31:25.258Z,56.80
2019-04-27T02:32:25.311Z,56.00
2019-04-27T02:33:25.399Z,55.80
2019-04-27T02:34:25.375Z,59.30
2019-04-27T02:35:25.548Z,59.60
2019-04-27T02:36:25.488Z,58.80
2019-04-27T02:37:25.543Z,60.60
2019-04-27T02:38:25.573Z,60.10
2019-04-27T02:39:25.628Z,61.60
2019-04-27T02:40:25.695Z,62.30
2019-04-27T02:41:25.709Z,60.00
2019-04-27T02:42:25.870Z,60.70
2019-04-27T02:43:25.819Z,61.90
2019-04-27T02:44:25.851Z,61.50
2019-04-27T02:45:25.905Z,63.40
2019-04-27T02:46:25.973Z,61.60
2019-04-27T02:47:26.044Z,61.60
2019-04-27T02:48:26.143Z,59.90
2019-04-27T02:49:26.115Z,57.50
2019-04-27T02:50:26.125Z,58.60
2019-04-27T02:51:26.166Z,59.80
2019-04-27T02:52:26.209Z,58.60
2019-04-27T02:53:26.242Z,60.60
2019-04-27T02:54:26.297Z,57.40
2019-04-27T02:55:26.368Z,61.70
2019-04-27T02:56:26.394Z,60.50
2019-04-27T02:57:26.450Z,61.70
2019-04-27T02:58:26.602Z,59.90
2019-04-27T02:59:26.541Z,60.30
2019-04-27T03:00:26.582Z,60.80
2019-04-27T03:01:26.653Z,60.00
2019-04-27T03:02:26.681Z,61.50
2019-04-27T03:03:26.762Z,61.50
2019-04-27T03:04:26.885Z,62.10
2019-04-27T03:05:29.496Z,60.30
2019-04-27T03:06:26.851Z,60.10
2019-04-27T03:07:26.895Z,56.40
2019-04-27T03:08:29.340Z,57.40
2019-04-27T03:09:27.033Z,57.80
2019-04-27T03:10:27.157Z,56.50
2019-04-27T03:11:27.075Z,61.00
2019-04-27T03:12:29.398Z,57.40
2019-04-27T03:13:27.190Z,58.40
2019-04-27T03:14:34.294Z,56.40
2019-04-27T03:15:27.257Z,56.70
2019-04-27T03:16:29.704Z,56.10
2019-04-27T03:17:27.388Z,56.40
2019-04-27T03:18:32.250Z,56.30
2019-04-27T03:19:29.832Z,57.60
2019-04-27T03:20:29.871Z,56.40
2019-04-27T03:21:29.690Z,55.00
2019-04-27T03:22:29.547Z,56.50
2019-04-27T03:23:30.293Z,54.60
2019-04-27T03:24:29.563Z,56.20
2019-04-27T03:25:30.336Z,57.40
2019-04-27T03:26:27.775Z,55.80
2019-04-27T03:27:30.144Z,57.00
2019-04-27T03:28:29.816Z,57.20
2019-04-27T03:29:30.479Z,58.80
2019-04-27T03:30:34.748Z,57.40
2019-04-27T03:31:32.326Z,56.30
2019-04-27T03:32:31.379Z,57.90
2019-04-27T03:33:31.998Z,54.50
2019-04-27T03:34:32.012Z,54.70
2019-04-27T03:35:35.036Z,57.90
2019-04-27T03:36:31.554Z,54.60
2019-04-27T03:37:30.319Z,57.80
2019-04-27T03:38:30.065Z,56.90
2019-04-27T03:39:29.982Z,57.00
2019-04-27T03:40:30.699Z,60.00
2019-04-27T03:41:29.286Z,59.00
2019-04-27T03:42:29.290Z,53.40
2019-04-27T03:43:30.253Z,53.70
2019-04-27T03:44:29.625Z,52.00
2019-04-27T03:45:29.804Z,50.90
2019-04-27T03:46:30.242Z,51.40
2019-04-27T03:47:30.729Z,53.80
2019-04-27T03:48:29.525Z,55.40
2019-04-27T03:49:37.480Z,51.70
2019-04-27T03:50:30.361Z,52.90
2019-04-27T03:51:29.984Z,53.70
2019-04-27T03:52:29.984Z,52.80
2019-04-27T03:53:29.843Z,54.50
2019-04-27T03:54:29.631Z,55.50
2019-04-27T03:55:30.557Z,57.00
2019-04-27T03:56:30.362Z,56.70
2019-04-27T03:57:29.781Z,55.30
2019-04-27T03:58:30.437Z,58.00
2019-04-27T03:59:29.515Z,55.50
2019-04-27T04:00:30.140Z,60.60
2019-04-27T04:01:30.231Z,55.00
2019-04-27T04:02:30.211Z,55.40
2019-04-27T04:03:29.778Z,52.90
2019-04-27T04:04:32.503Z,53.70
2019-04-27T04:05:30.181Z,54.20
2019-04-27T04:06:29.767Z,53.10
2019-04-27T04:07:30.123Z,56.00
2019-04-27T04:08:30.759Z,53.80
2019-04-27T04:09:29.771Z,55.30
2019-04-27T04:10:29.864Z,55.30
2019-04-27T04:11:30.440Z,55.20
2019-04-27T04:12:30.349Z,55.10
2019-04-27T04:13:30.087Z,57.00
2019-04-27T04:14:30.252Z,56.00
2019-04-27T04:15:30.069Z,57.40
2019-04-27T04:16:30.093Z,57.10
2019-04-27T04:17:31.057Z,53.00
2019-04-27T04:18:31.823Z,53.70
2019-04-27T04:19:47.454Z,54.40
2019-04-27T04:20:30.639Z,55.00
2019-04-27T04:21:30.330Z,56.00
2019-04-27T04:22:30.413Z,56.70
2019-04-27T04:23:30.363Z,58.70
2019-04-27T04:24:31.761Z,58.90
2019-04-27T04:25:33.230Z,61.00
2019-04-27T04:26:32.781Z,57.60
2019-04-27T04:27:30.590Z,56.50
2019-04-27T04:28:30.649Z,56.80
2019-04-27T04:29:30.917Z,58.90
2019-04-27T04:30:30.779Z,51.40
2019-04-27T04:31:33.104Z,49.30
2019-04-27T04:32:30.812Z,49.40
2019-04-27T04:33:30.878Z,53.70
2019-04-27T04:34:30.944Z,52.90
2019-04-27T04:35:33.305Z,53.30
2019-04-27T04:36:30.948Z,56.70
2019-04-27T04:37:31.043Z,52.70
2019-04-27T04:38:31.139Z,55.10
2019-04-27T04:39:31.136Z,54.60
2019-04-27T04:40:31.252Z,56.10
2019-04-27T04:41:31.183Z,57.60
2019-04-27T04:42:31.271Z,51.60
2019-04-27T04:43:31.333Z,48.60
2019-04-27T04:44:31.343Z,44.40
2019-04-27T04:45:31.435Z,43.80
2019-04-27T04:46:31.398Z,44.70
2019-04-27T04:47:31.433Z,44.10
2019-04-27T04:48:31.493Z,45.90
2019-04-27T04:49:31.549Z,43.90
2019-04-27T04:50:31.590Z,44.40
2019-04-27T04:51:31.634Z,41.60
2019-04-27T04:52:31.679Z,41.60
2019-04-27T04:53:31.734Z,43.90
2019-04-27T04:54:31.778Z,42.70
2019-04-27T04:55:31.822Z,42.00
2019-04-27T04:56:31.850Z,40.90
2019-04-27T04:57:31.918Z,40.60
2019-04-27T04:58:31.980Z,43.50
2019-04-27T04:59:32.047Z,40.00
2019-04-27T05:00:32.039Z,38.20
2019-04-27T05:01:32.086Z,39.90
2019-04-27T05:02:32.129Z,39.90
2019-04-27T05:03:32.170Z,40.40
2019-04-27T05:04:32.210Z,41.20
2019-04-27T05:05:32.251Z,39.20
2019-04-27T05:06:32.317Z,40.70
2019-04-27T05:07:32.348Z,39.90
2019-04-27T05:08:32.384Z,40.10
2019-04-27T05:09:32.451Z,37.80
2019-04-27T05:10:32.495Z,41.00
2019-04-27T05:11:32.542Z,39.90
2019-04-27T05:12:32.640Z,40.20
2019-04-27T05:13:32.632Z,39.90
2019-04-27T05:14:32.681Z,37.90
2019-04-27T05:15:32.708Z,40.10
2019-04-27T05:16:33.039Z,38.50
2019-04-27T05:17:32.829Z,36.80
2019-04-27T05:18:32.969Z,37.20
2019-04-27T05:19:32.915Z,36.80
2019-04-27T05:20:32.951Z,39.30
2019-04-27T05:21:33.005Z,38.40
2019-04-27T05:22:33.030Z,41.80
2019-04-27T05:23:33.096Z,42.90
2019-04-27T05:24:33.157Z,38.80
2019-04-27T05:25:33.170Z,38.00
2019-04-27T05:26:33.224Z,37.10
2019-04-27T05:27:33.283Z,38.90
2019-04-27T05:28:33.327Z,41.30
2019-04-27T05:29:33.375Z,43.10
2019-04-27T05:30:33.385Z,44.60
2019-04-27T05:31:33.464Z,42.70
2019-04-27T05:32:33.500Z,38.60
2019-04-27T05:33:33.543Z,38.60
2019-04-27T05:34:33.594Z,39.40
2019-04-27T05:35:33.629Z,38.70
2019-04-27T05:36:33.730Z,39.30
2019-04-27T05:37:33.772Z,41.60
2019-04-27T05:38:33.799Z,39.60
2019-04-27T05:39:33.809Z,39.00
2019-04-27T05:40:33.860Z,38.50
2019-04-27T05:41:37.533Z,39.90
2019-04-27T05:42:33.969Z,40.50
2019-04-27T05:43:33.978Z,41.70
2019-04-27T05:44:34.046Z,41.00
2019-04-27T05:45:34.093Z,44.80
2019-04-27T05:46:35.540Z,44.60
2019-04-27T05:47:34.179Z,47.00
2019-04-27T05:48:34.228Z,50.80
2019-04-27T05:49:36.268Z,49.50
2019-04-27T05:50:38.769Z,45.90
2019-04-27T05:51:37.058Z,44.90
2019-04-27T05:52:34.447Z,45.40
2019-04-27T05:53:34.441Z,44.70
2019-04-27T05:54:34.503Z,45.80
2019-04-27T05:55:34.540Z,46.50
2019-04-27T05:56:34.599Z,44.70
2019-04-27T05:57:34.620Z,45.80
2019-04-27T05:58:34.707Z,50.10
2019-04-27T05:59:34.721Z,51.00
2019-04-27T06:00:34.784Z,50.00
2019-04-27T06:01:34.815Z,50.60
2019-04-27T06:02:34.856Z,51.70
2019-04-27T06:03:34.888Z,50.10
2019-04-27T06:04:34.963Z,50.40
2019-04-27T06:05:35.010Z,50.80
2019-04-27T06:06:35.065Z,49.90
2019-04-27T06:07:35.096Z,48.10
2019-04-27T06:08:35.176Z,48.70
2019-04-27T06:09:35.216Z,48.30
2019-04-27T06:10:35.240Z,48.20
2019-04-27T06:11:35.266Z,49.10
2019-04-27T06:12:35.308Z,49.00
2019-04-27T06:13:35.348Z,50.00
2019-04-27T06:14:35.399Z,49.50
2019-04-27T06:15:35.490Z,52.70
2019-04-27T06:16:35.487Z,49.30
2019-04-27T06:17:35.549Z,47.70
2019-04-27T06:18:35.574Z,48.20
2019-04-27T06:19:35.646Z,49.10
2019-04-27T06:20:48.381Z,49.50
2019-04-27T06:21:35.744Z,48.80
2019-04-27T06:22:35.790Z,48.60
2019-04-27T06:23:35.819Z,46.00
2019-04-27T06:24:35.871Z,44.90
2019-04-27T06:25:35.891Z,42.50
2019-04-27T06:26:35.971Z,43.90
2019-04-27T06:27:36.050Z,42.90
2019-04-27T06:28:36.054Z,44.20
2019-04-27T06:29:36.099Z,43.50
2019-04-27T06:30:36.179Z,45.10
2019-04-27T06:31:36.164Z,44.40
2019-04-27T06:32:36.240Z,45.20
2019-04-27T06:33:36.247Z,44.10
2019-04-27T06:34:36.307Z,43.30
2019-04-27T06:35:36.349Z,43.30
2019-04-27T06:36:36.430Z,44.60
2019-04-27T06:37:36.439Z,43.90
2019-04-27T06:38:36.641Z,44.50
2019-04-27T06:39:36.541Z,43.30
2019-04-27T06:40:36.577Z,43.90
2019-04-27T06:41:36.630Z,44.60
2019-04-27T06:42:36.679Z,45.00
2019-04-27T06:43:36.726Z,44.20
2019-04-27T06:44:36.769Z,43.80
2019-04-27T06:45:38.641Z,44.40
2019-04-27T06:46:38.553Z,44.20
2019-04-27T06:47:39.582Z,43.40
2019-04-27T06:48:36.958Z,43.70
2019-04-27T06:49:36.959Z,43.50
2019-04-27T06:50:38.843Z,43.30
2019-04-27T06:51:37.077Z,44.40
2019-04-27T06:52:38.657Z,46.50
2019-04-27T06:53:37.170Z,45.30
2019-04-27T06:54:38.850Z,45.00
2019-04-27T06:55:39.105Z,46.90
2019-04-27T06:56:38.975Z,47.00
2019-04-27T06:57:39.102Z,44.90
2019-04-27T06:58:38.913Z,45.40
2019-04-27T06:59:37.471Z,44.90
2019-04-27T07:00:37.460Z,44.60
2019-04-27T07:01:38.984Z,45.60
2019-04-27T07:02:39.180Z,44.00
2019-04-27T07:03:39.392Z,44.40
2019-04-27T07:04:39.133Z,43.60
2019-04-27T07:05:38.792Z,43.30
2019-04-27T07:06:52.282Z,44.00
2019-04-27T07:07:39.522Z,43.80
2019-04-27T07:08:39.925Z,44.80
2019-04-27T07:09:39.269Z,44.40
2019-04-27T07:10:39.169Z,44.70
2019-04-27T07:11:39.424Z,45.60
2019-04-27T07:12:38.737Z,45.30
2019-04-27T07:13:39.038Z,44.70
2019-04-27T07:14:51.779Z,46.40
2019-04-27T07:15:38.731Z,45.80
2019-04-27T07:16:39.186Z,46.80
2019-04-27T07:17:38.891Z,48.80
2019-04-27T07:18:39.705Z,47.90
2019-04-27T07:19:39.699Z,47.90
2019-04-27T07:20:38.841Z,49.20
2019-04-27T07:21:39.964Z,50.30
2019-04-27T07:22:39.706Z,49.80
2019-04-27T07:23:38.909Z,50.80
2019-04-27T07:24:38.816Z,50.90
2019-04-27T07:25:38.928Z,51.50
2019-04-27T07:26:39.224Z,49.80
2019-04-27T07:27:39.497Z,50.10
2019-04-27T07:28:39.272Z,51.00
2019-04-27T07:29:43.131Z,51.20
2019-04-27T07:30:38.903Z,52.10
2019-04-27T07:31:40.027Z,51.00
2019-04-27T07:32:39.176Z,51.00
2019-04-27T07:33:39.606Z,50.20
2019-04-27T07:34:39.033Z,50.30
2019-04-27T07:35:39.355Z,49.40
2019-04-27T07:36:39.468Z,50.80
2019-04-27T07:37:39.371Z,50.40
2019-04-27T07:38:39.515Z,51.10
2019-04-27T07:39:39.222Z,51.50
2019-04-27T07:40:41.829Z,50.30
2019-04-27T07:41:39.298Z,50.00
2019-04-27T07:42:41.363Z,49.90
2019-04-27T07:43:39.745Z,50.10
2019-04-27T07:44:39.447Z,50.70
2019-04-27T07:45:39.661Z,52.10
2019-04-27T07:46:39.551Z,53.10
2019-04-27T07:47:39.559Z,53.50
2019-04-27T07:48:39.649Z,52.80
2019-04-27T07:49:39.647Z,51.80
2019-04-27T07:50:39.702Z,52.60
2019-04-27T07:51:39.757Z,51.50
2019-04-27T07:52:40.544Z,51.20
2019-04-27T07:53:39.838Z,51.30
2019-04-27T07:54:41.004Z,50.30
2019-04-27T07:55:39.916Z,50.30
2019-04-27T07:56:39.987Z,52.90
2019-04-27T07:57:40.092Z,51.90
2019-04-27T07:58:40.064Z,52.00
2019-04-27T07:59:42.100Z,52.20
2019-04-27T08:00:40.137Z,52.00
2019-04-27T08:01:40.207Z,51.30
2019-04-27T08:02:40.218Z,53.00
2019-04-27T08:03:40.293Z,51.00
2019-04-27T08:04:40.324Z,51.90
2019-04-27T08:05:40.409Z,52.20
2019-04-27T08:06:40.389Z,50.50
2019-04-27T08:07:40.461Z,52.40
2019-04-27T08:08:40.523Z,52.90
2019-04-27T08:09:40.560Z,52.40
2019-04-27T08:10:40.590Z,53.40
2019-04-27T08:11:40.637Z,52.80
2019-04-27T08:12:40.673Z,53.20
2019-04-27T08:13:40.729Z,54.90
2019-04-27T08:14:40.741Z,53.10
2019-04-27T08:15:40.815Z,55.50
2019-04-27T08:16:40.896Z,53.90
2019-04-27T08:17:42.902Z,53.40
2019-04-27T08:18:40.954Z,54.30
2019-04-27T08:19:40.997Z,52.70
2019-04-27T08:20:41.012Z,55.00
2019-04-27T08:21:44.495Z,55.70
2019-04-27T08:22:41.112Z,55.10
2019-04-27T08:23:41.174Z,54.10
2019-04-27T08:24:41.206Z,54.80
2019-04-27T08:25:41.274Z,55.50
2019-04-27T08:26:41.291Z,54.20
2019-04-27T08:27:41.354Z,53.10
2019-04-27T08:28:41.396Z,54.10
2019-04-27T08:29:41.456Z,52.90
2019-04-27T08:30:41.471Z,54.70
2019-04-27T08:31:41.527Z,56.90
2019-04-27T08:32:41.706Z,54.40
2019-04-27T08:33:41.635Z,54.90
2019-04-27T08:34:41.653Z,54.90
2019-04-27T08:35:41.715Z,53.30
2019-04-27T08:36:41.785Z,57.30
2019-04-27T08:37:41.807Z,56.00
2019-04-27T08:38:41.910Z,54.50
2019-04-27T08:39:41.887Z,53.00
2019-04-27T08:40:41.925Z,52.90
2019-04-27T08:41:41.979Z,54.00
2019-04-27T08:42:42.024Z,53.10
2019-04-27T08:43:42.085Z,54.90
2019-04-27T08:44:42.104Z,53.10
2019-04-27T08:45:42.144Z,57.00
2019-04-27T08:46:42.177Z,56.40
2019-04-27T08:47:42.246Z,56.70
2019-04-27T08:48:42.282Z,55.70
2019-04-27T08:49:42.318Z,55.10
2019-04-27T08:50:42.365Z,54.90
2019-04-27T08:51:42.408Z,55.70
2019-04-27T08:52:42.445Z,57.30
2019-04-27T08:53:42.514Z,57.20
2019-04-27T08:54:42.546Z,55.90
2019-04-27T08:55:42.590Z,54.00
2019-04-27T08:56:42.633Z,54.60
2019-04-27T08:57:42.723Z,55.90
2019-04-27T08:58:42.733Z,54.90
2019-04-27T08:59:42.793Z,56.80
2019-04-27T09:00:42.811Z,56.50
2019-04-27T09:01:42.857Z,52.80
2019-04-27T09:02:47.030Z,53.60
2019-04-27T09:03:42.957Z,52.90
2019-04-27T09:04:42.977Z,53.60
2019-04-27T09:05:43.018Z,54.70
2019-04-27T09:06:43.090Z,53.40
2019-04-27T09:07:43.130Z,54.20
2019-04-27T09:08:43.165Z,53.00
2019-04-27T09:09:43.219Z,52.40
2019-04-27T09:10:43.283Z,52.00
2019-04-27T09:11:43.299Z,51.30
2019-04-27T09:12:43.352Z,51.20
2019-04-27T09:13:43.396Z,50.30
2019-04-27T09:14:43.436Z,53.60
2019-04-27T09:15:43.460Z,53.70
2019-04-27T09:16:43.529Z,54.80
2019-04-27T09:17:43.551Z,51.80
2019-04-27T09:18:43.622Z,52.10
2019-04-27T09:19:43.632Z,54.00
2019-04-27T09:20:43.704Z,54.40
2019-04-27T09:21:43.733Z,52.50
2019-04-27T09:22:43.788Z,52.40
2019-04-27T09:23:43.822Z,51.60
2019-04-27T09:24:43.900Z,52.30
2019-04-27T09:25:43.925Z,51.40
2019-04-27T09:26:44.020Z,53.30
2019-04-27T09:27:44.027Z,54.10
2019-04-27T09:28:44.037Z,52.30
2019-04-27T09:29:44.119Z,53.10
2019-04-27T09:30:44.143Z,52.40
2019-04-27T09:31:44.221Z,54.40
2019-04-27T09:32:44.224Z,54.40
2019-04-27T09:33:44.273Z,53.20
2019-04-27T09:34:44.307Z,52.70
2019-04-27T09:35:44.396Z,52.60
2019-04-27T09:36:45.901Z,49.00
2019-04-27T09:37:45.851Z,48.70
2019-04-27T09:38:46.286Z,50.70
2019-04-27T09:39:46.072Z,50.10
2019-04-27T09:40:46.424Z,48.20
2019-04-27T09:41:45.983Z,49.20
2019-04-27T09:42:46.373Z,48.30
2019-04-27T09:43:46.516Z,50.40
2019-04-27T09:44:45.632Z,50.40
2019-04-27T09:45:44.829Z,52.20
2019-04-27T09:46:44.839Z,49.50
2019-04-27T09:47:46.690Z,48.80
2019-04-27T09:48:46.592Z,48.90
2019-04-27T09:49:46.078Z,49.00
2019-04-27T09:50:46.640Z,49.50
2019-04-27T09:51:46.009Z,49.40
2019-04-27T09:52:45.954Z,47.80
2019-04-27T09:53:45.857Z,47.50
2019-04-27T09:54:45.216Z,48.90
2019-04-27T09:55:46.851Z,48.00
2019-04-27T09:56:46.763Z,47.40
2019-04-27T09:57:46.497Z,48.20
2019-04-27T09:58:47.009Z,47.30
2019-04-27T09:59:46.066Z,45.80
2019-04-27T10:00:45.841Z,45.90
2019-04-27T10:01:46.522Z,44.70
2019-04-27T10:02:46.569Z,45.00
2019-04-27T10:03:46.377Z,43.10
2019-04-27T10:04:46.207Z,44.50
2019-04-27T10:05:46.001Z,43.00
2019-04-27T10:06:46.199Z,42.40
2019-04-27T10:07:47.579Z,41.70
2019-04-27T10:08:45.861Z,41.50
2019-04-27T10:09:47.319Z,39.70
2019-04-27T10:10:47.828Z,38.00
2019-04-27T10:11:45.980Z,38.30
2019-04-27T10:12:46.634Z,38.00
2019-04-27T10:13:46.524Z,37.20
2019-04-27T10:14:47.731Z,37.00
2019-04-27T10:15:46.175Z,36.00
2019-04-27T10:16:46.930Z,34.60
2019-04-27T10:17:46.297Z,34.40
2019-04-27T10:18:46.313Z,33.30
2019-04-27T10:19:46.349Z,33.40
2019-04-27T10:20:58.318Z,33.10
2019-04-27T10:21:46.793Z,33.00
2019-04-27T10:22:46.544Z,33.20
2019-04-27T10:23:47.039Z,32.20
2019-04-27T10:24:46.584Z,31.30
2019-04-27T10:25:46.673Z,31.00
2019-04-27T10:26:46.680Z,30.90
2019-04-27T10:27:46.742Z,29.30
2019-04-27T10:28:46.753Z,29.30
2019-04-27T10:29:46.938Z,28.80
2019-04-27T10:30:46.855Z,29.40
2019-04-27T10:31:48.217Z,27.90
2019-04-27T10:32:46.985Z,27.50
2019-04-27T10:33:47.021Z,26.80
2019-04-27T10:34:47.106Z,26.20
2019-04-27T10:35:47.408Z,24.50
2019-04-27T10:36:47.170Z,24.60
2019-04-27T10:37:47.217Z,23.00
2019-04-27T10:38:47.277Z,23.20
2019-04-27T10:39:47.318Z,21.80
2019-04-27T10:40:47.335Z,20.60
2019-04-27T10:41:47.399Z,18.90
2019-04-27T10:42:47.457Z,19.40
2019-04-27T10:43:47.525Z,19.40
2019-04-27T10:44:47.546Z,20.30
2019-04-27T10:45:47.643Z,19.60
2019-04-27T10:46:47.675Z,19.10
2019-04-27T10:47:49.500Z,17.60
2019-04-27T10:48:47.736Z,17.70
2019-04-27T10:49:48.465Z,16.50
2019-04-27T10:50:47.841Z,16.00
2019-04-27T10:51:47.917Z,16.50
2019-04-27T10:52:53.586Z,16.30
2019-04-27T10:53:48.019Z,15.40
2019-04-27T10:54:48.072Z,14.60
2019-04-27T10:55:48.137Z,14.90
2019-04-27T10:56:48.188Z,15.00
2019-04-27T10:57:48.263Z,15.10
2019-04-27T10:58:48.306Z,14.60
2019-04-27T10:59:48.358Z,14.40
2019-04-27T11:00:48.355Z,13.80
2019-04-27T11:01:48.427Z,14.00
2019-04-27T11:02:48.473Z,14.30
2019-04-27T11:03:48.556Z,14.70
2019-04-27T11:04:48.560Z,14.90
2019-04-27T11:05:48.621Z,14.00
2019-04-27T11:06:48.677Z,14.40
2019-04-27T11:07:48.731Z,15.00
2019-04-27T11:08:48.781Z,14.60
2019-04-27T11:09:48.811Z,14.50
2019-04-27T11:10:48.882Z,14.30
2019-04-27T11:11:48.929Z,14.50
2019-04-27T11:12:48.976Z,14.90
2019-04-27T11:13:49.031Z,15.20
2019-04-27T11:14:49.124Z,13.40
2019-04-27T11:15:49.185Z,13.50
2019-04-27T11:16:49.165Z,15.10
2019-04-27T11:17:49.265Z,13.50
2019-04-27T11:18:49.283Z,13.40
2019-04-27T11:19:49.352Z,13.90
2019-04-27T11:20:49.404Z,13.50
2019-04-27T11:21:49.429Z,13.50
2019-04-27T11:22:49.499Z,14.50
2019-04-27T11:23:49.544Z,13.80
2019-04-27T11:24:49.593Z,13.90
2019-04-27T11:25:49.667Z,13.70
2019-04-27T11:26:49.706Z,14.00
2019-04-27T11:27:49.750Z,13.60
2019-04-27T11:28:49.798Z,13.80
2019-04-27T11:29:49.884Z,13.20
2019-04-27T11:30:49.898Z,13.00
2019-04-27T11:31:49.944Z,13.10
2019-04-27T11:32:50.068Z,12.50
2019-04-27T11:33:50.057Z,12.50
2019-04-27T11:34:50.089Z,13.00
2019-04-27T11:35:50.149Z,13.00
2019-04-27T11:36:50.218Z,12.40
2019-04-27T11:37:50.274Z,12.00
2019-04-27T11:38:50.333Z,12.00
2019-04-27T11:39:50.387Z,11.90
2019-04-27T11:40:50.442Z,12.30
2019-04-27T11:41:50.487Z,12.10
2019-04-27T11:42:50.545Z,12.90
2019-04-27T11:43:50.591Z,12.60
2019-04-27T11:44:50.679Z,12.90
2019-04-27T11:45:50.681Z,12.60
2019-04-27T11:46:50.792Z,12.40
2019-04-27T11:47:50.806Z,11.70
2019-04-27T11:48:50.851Z,12.30
2019-04-27T11:49:50.915Z,12.00
2019-04-27T11:50:50.964Z,11.60
2019-04-27T11:51:51.021Z,12.00
2019-04-27T11:52:51.064Z,11.10
2019-04-27T11:53:51.147Z,11.50
2019-04-27T11:54:51.152Z,11.70
2019-04-27T11:55:51.235Z,11.80
2019-04-27T11:56:51.253Z,11.20
2019-04-27T11:57:51.316Z,11.10
2019-04-27T11:58:51.368Z,11.30
2019-04-27T11:59:51.423Z,11.40
2019-04-27T12:00:51.481Z,11.00
2019-04-27T12:01:51.554Z,10.40
2019-04-27T12:02:51.592Z,11.30
2019-04-27T12:03:51.659Z,11.20
2019-04-27T12:04:51.709Z,10.20
2019-04-27T12:05:51.777Z,9.60
2019-04-27T12:06:51.824Z,10.00
2019-04-27T12:07:51.861Z,10.20
2019-04-27T12:08:51.903Z,9.40
2019-04-27T12:09:51.986Z,9.10
2019-04-27T12:10:52.037Z,8.40
2019-04-27T12:11:52.063Z,7.90
2019-04-27T12:12:52.155Z,7.20
2019-04-27T12:13:52.237Z,7.10
2019-04-27T12:14:52.261Z,6.90
2019-04-27T12:15:52.312Z,6.90
2019-04-27T12:16:52.362Z,6.60
2019-04-27T12:17:52.417Z,6.50
2019-04-27T12:18:52.474Z,6.30
2019-04-27T12:19:52.620Z,6.60
2019-04-27T12:20:52.636Z,6.60
2019-04-27T12:21:52.634Z,6.60
2019-04-27T12:22:52.686Z,6.10
2019-04-27T12:23:52.754Z,6.10
2019-04-27T12:24:52.816Z,5.80
2019-04-27T12:25:52.863Z,6.30
2019-04-27T12:26:52.923Z,5.80
2019-04-27T12:27:53.003Z,5.60
2019-04-27T12:28:53.022Z,5.90
2019-04-27T12:29:53.118Z,5.80
2019-04-27T12:30:53.161Z,5.80
2019-04-27T12:31:53.246Z,5.40
2019-04-27T12:32:53.308Z,4.80
2019-04-27T12:33:53.319Z,4.80
2019-04-27T12:34:53.379Z,4.60
2019-04-27T12:35:53.433Z,4.60
2019-04-27T12:36:53.562Z,4.20
2019-04-27T12:37:53.539Z,4.50
2019-04-27T12:38:53.634Z,4.10
2019-04-27T12:39:53.677Z,4.20
2019-04-27T12:40:53.716Z,4.20
2019-04-27T12:41:53.771Z,4.00
2019-04-27T12:42:53.862Z,3.60
2019-04-27T12:43:53.905Z,3.90
2019-04-27T12:44:53.977Z,4.10
2019-04-27T12:45:55.836Z,3.90
2019-04-27T12:46:54.070Z,3.70
2019-04-27T12:47:54.107Z,3.80
2019-04-27T12:48:55.320Z,3.70
2019-04-27T12:49:57.513Z,3.60
2019-04-27T12:50:54.267Z,3.80
2019-04-27T12:51:55.821Z,3.80
2019-04-27T12:52:54.392Z,3.80
2019-04-27T12:53:55.971Z,3.60
2019-04-27T12:54:54.497Z,3.40